Crescent, Missouri
Current Conditions -  °F | °C
As of 8:54 PM on Tuesday 21 Oct 2014 (Local Time) from KSUS Reporting Station
Clear Clear  
Wind Chill: 10°   Ceiling: Unl
Heat Index: 10°   Visibility: 10mi
Dew Point:   Wind: 3mph
Humidity: 83%   Direction: 80°E
Pressure: 30.16"   Gusts: NA
Location:  38.5081°N, 90.6523°W
Report Text: KSUS 220154Z 08003KT 10SM CLR 10/07 A3016 RMK AO2 SLP215 T01000072
Loading
Personal Weather Stations






























Interactive Weather Map
Tropical Storm Tracking
New forecast layout! Learn more

10-Day Weather Forecast

Advertisements
Track Severe Weather on mobile